Antsiranana, Antsiranana Arrachart Airport (FMNA)

NameAntsiranana Arrachart Airport
CityAntsiranana
CountryMadagascar
ICAOFMNA
IATADIE
Altitude114 m
CoordinatesGoogle Map
Live Air TrafficLiveATC.net
METARFMNA 251500Z 00000KT 9999 FEW020CB SCT230 29/25 Q1008
2019-03-25 15:00:00 Wind: North (0°) 0 m/s - Visibility: > 10000 m - Temperature: 29 °C - Dew point: 25 °C - Humidity: 79% - Pressure: 1008 hPa

Sorry, no flights used the airport in this database.